Time;durP1;ratioP1;P1;durP2;ratioP2;P2;SDS_P1;SDS_P2;PMS_P1;PMS_P2;Temp;Humidity;BMP_temperature;BMP_pressure;BME280_temperature;BME280_humidity;BME280_pressure;Samples;Min_cycle;Max_cycle;Signal;HPM_P1;HPM_P2
2023/12/11 00:01:24;;;;;;;;;;;;;;;;;;5113732;28;19927;-52
2023/12/11 00:03:50;;;;;;;;;;;;;;;;;;5113069;28;20014;-52
2023/12/11 00:06:17;;;;;;;;;;;;;;;;;;5113701;28;19952;-52
2023/12/11 00:08:43;;;;;;;;;;;;;;;;;;5113416;28;19928;-53
2023/12/11 00:11:12;;;;;;;;;;;;;;;;;;5113522;28;19924;-52
2023/12/11 00:13:38;;;;;;;;;;;;;;;;;;5113625;28;19980;-52
2023/12/11 00:16:04;;;;;;;;;;;;;;;;;;5112966;28;19923;-52
2023/12/11 00:18:30;;;;;;;;;;;;;;;;;;5113243;28;19930;-52
2023/12/11 00:20:57;;;;;;;;;;;;;;;;;;5113304;28;19993;-52
2023/12/11 00:23:23;;;;;;;;;;;;;;;;;;5113407;28;19923;-51
2023/12/11 00:25:49;;;;;;;;;;;;;;;;;;5113423;28;19977;-52
2023/12/11 00:28:17;;;;;;;;;;;;;;;;;;5113125;28;19952;-52
2023/12/11 00:30:43;;;;;;;;;;;;;;;;;;5113271;28;19977;-52
2023/12/11 00:33:09;;;;;;;;;;;;;;;;;;5113292;28;20313;-52
2023/12/11 00:35:35;;;;;;;;;;;;;;;;;;5113040;28;19935;-52
2023/12/11 00:38:02;;;;;;;;;;;;;;;;;;5112086;28;20511;-52
2023/12/11 00:40:28;;;;;;;;;;;;;;;;;;5112292;28;19923;-52
2023/12/11 00:42:54;;;;;;;;;;;;;;;;;;5113075;28;19924;-52
2023/12/11 00:45:20;;;;;;;;;;;;;;;;;;5112948;28;19977;-53
2023/12/11 00:47:46;;;;;;;;;;;;;;;;;;5113411;28;19928;-52
2023/12/11 00:50:12;;;;;;;;;;;;;;;;;;5113178;28;19934;-52
2023/12/11 00:52:39;;;;;;;;;;;;;;;;;;5113085;28;19924;-52
2023/12/11 00:55:05;;;;;;;;;;;;;;;;;;5113177;28;19928;-52
2023/12/11 00:57:31;;;;;;;;;;;;;;;;;;5112126;28;19923;-52
2023/12/11 00:59:57;;;;;;;;;;;;;;;;;;5112623;28;19967;-52
2023/12/11 01:02:23;;;;;;;;;;;;;;;;;;5112790;28;20007;-52
2023/12/11 01:04:50;;;;;;;;;;;;;;;;;;5113074;28;19973;-52
2023/12/11 01:07:16;;;;;;;;;;;;;;;;;;5113132;28;19924;-52
2023/12/11 01:09:42;;;;;;;;;;;;;;;;;;5112693;28;20328;-52
2023/12/11 01:12:08;;;;;;;;;;;;;;;;;;5112977;28;19931;-51
2023/12/11 01:14:34;;;;;;;;;;;;;;;;;;5112771;28;19924;-52
2023/12/11 01:17:01;;;;;;;;;;;;;;;;;;5115037;28;19924;-52
2023/12/11 01:19:47;;;;;;;;;;;;;;;;;;5115341;28;19923;-52
2023/12/11 01:22:13;;;;;;;;;;;;;;;;;;5116540;28;20015;-52
2023/12/11 01:24:39;;;;;;;;;;;;;;;;;;5116648;28;19927;-52
2023/12/11 01:27:05;;;;;;;;;;;;;;;;;;5116554;28;19928;-52
2023/12/11 01:29:31;;;;;;;;;;;;;;;;;;5116173;28;20295;-52
2023/12/11 01:31:58;;;;;;;;;;;;;;;;;;5116604;28;20394;-52
2023/12/11 01:34:24;;;;;;;;;;;;;;;;;;5116523;28;19986;-52
2023/12/11 01:36:50;;;;;;;;;;;;;;;;;;5115978;28;19934;-51
2023/12/11 01:39:16;;;;;;;;;;;;;;;;;;5115790;28;19930;-52
2023/12/11 01:41:42;;;;;;;;;;;;;;;;;;5115999;28;20132;-51
2023/12/11 01:44:08;;;;;;;;;;;;;;;;;;5116003;28;19928;-51
2023/12/11 01:46:34;;;;;;;;;;;;;;;;;;5116196;28;19931;-52
2023/12/11 01:49:01;;;;;;;;;;;;;;;;;;5116264;28;19988;-52
2023/12/11 01:51:27;;;;;;;;;;;;;;;;;;5116178;28;20264;-52
2023/12/11 01:53:53;;;;;;;;;;;;;;;;;;5115808;28;19931;-52
2023/12/11 01:56:20;;;;;;;;;;;;;;;;;;5115771;28;19923;-52
2023/12/11 01:58:46;;;;;;;;;;;;;;;;;;5115530;28;20414;-52
2023/12/11 02:01:12;;;;;;;;;;;;;;;;;;5115738;28;19928;-52
2023/12/11 02:03:39;;;;;;;;;;;;;;;;;;5116091;28;20382;-52
2023/12/11 02:06:05;;;;;;;;;;;;;;;;;;5115975;28;19924;-51
2023/12/11 02:08:31;;;;;;;;;;;;;;;;;;5115697;28;19936;-52
2023/12/11 02:10:57;;;;;;;;;;;;;;;;;;5115961;28;19924;-52
2023/12/11 02:13:23;;;;;;;;;;;;;;;;;;5115914;28;19981;-56
2023/12/11 02:15:50;;;;;;;;;;;;;;;;;;5115263;28;19924;-56
2023/12/11 02:18:17;;;;;;;;;;;;;;;;;;5114750;28;19947;-56
2023/12/11 02:20:43;;;;;;;;;;;;;;;;;;5115164;28;19924;-56
2023/12/11 02:23:09;;;;;;;;;;;;;;;;;;5115610;28;19973;-52
2023/12/11 02:25:35;;;;;;;;;;;;;;;;;;5115478;28;19924;-52
2023/12/11 02:28:02;;;;;;;;;;;;;;;;;;5115225;28;19951;-52
2023/12/11 02:30:28;;;;;;;;;;;;;;;;;;5115475;28;19963;-52
2023/12/11 02:32:54;;;;;;;;;;;;;;;;;;5115455;28;19957;-49
2023/12/11 02:35:20;;;;;;;;;;;;;;;;;;5115519;28;19927;-52
2023/12/11 02:37:47;;;;;;;;;;;;;;;;;;5114929;28;19924;-52
2023/12/11 02:40:13;;;;;;;;;;;;;;;;;;5114556;28;19976;-51
2023/12/11 02:42:39;;;;;;;;;;;;;;;;;;5115344;28;19924;-52
2023/12/11 02:45:05;;;;;;;;;;;;;;;;;;5114415;28;19941;-52
2023/12/11 02:47:31;;;;;;;;;;;;;;;;;;5115109;28;19983;-52
2023/12/11 02:49:58;;;;;;;;;;;;;;;;;;5115044;28;19924;-52
2023/12/11 02:52:24;;;;;;;;;;;;;;;;;;5114679;28;19932;-51
2023/12/11 02:54:50;;;;;;;;;;;;;;;;;;5114948;28;19924;-52
2023/12/11 02:57:16;;;;;;;;;;;;;;;;;;5114583;28;19924;-52
2023/12/11 02:59:43;;;;;;;;;;;;;;;;;;5114085;28;19928;-52
2023/12/11 03:02:09;;;;;;;;;;;;;;;;;;5114690;28;19923;-52
2023/12/11 03:04:35;;;;;;;;;;;;;;;;;;5114862;28;19976;-52
2023/12/11 03:07:01;;;;;;;;;;;;;;;;;;5114826;28;19928;-52
2023/12/11 03:09:28;;;;;;;;;;;;;;;;;;5114554;28;20014;-52
2023/12/11 03:11:54;;;;;;;;;;;;;;;;;;5114834;28;20008;-52
2023/12/11 03:14:20;;;;;;;;;;;;;;;;;;5114262;28;20440;-52
2023/12/11 03:16:46;;;;;;;;;;;;;;;;;;5114162;28;19977;-51
2023/12/11 03:19:12;;;;;;;;;;;;;;;;;;5113966;28;19928;-52
2023/12/11 03:21:39;;;;;;;;;;;;;;;;;;5113932;28;19989;-50
2023/12/11 03:24:05;;;;;;;;;;;;;;;;;;5114285;28;19928;-51
2023/12/11 03:26:31;;;;;;;;;;;;;;;;;;5114337;28;19928;-52
2023/12/11 03:28:57;;;;;;;;;;;;;;;;;;5114233;28;19986;-52
2023/12/11 03:31:23;;;;;;;;;;;;;;;;;;5114160;28;20340;-52
2023/12/11 03:33:49;;;;;;;;;;;;;;;;;;5114393;28;20020;-52
2023/12/11 03:36:16;;;;;;;;;;;;;;;;;;5114063;28;19973;-51
2023/12/11 03:38:42;;;;;;;;;;;;;;;;;;5113231;28;19928;-52
2023/12/11 03:41:08;;;;;;;;;;;;;;;;;;5113983;28;19969;-50
2023/12/11 03:43:34;;;;;;;;;;;;;;;;;;5114139;28;19966;-51
2023/12/11 03:46:01;;;;;;;;;;;;;;;;;;5113030;28;19977;-50
2023/12/11 03:48:28;;;;;;;;;;;;;;;;;;5113726;28;20004;-50
2023/12/11 03:50:54;;;;;;;;;;;;;;;;;;5113965;28;19924;-52
2023/12/11 03:53:20;;;;;;;;;;;;;;;;;;5113939;28;19981;-50
2023/12/11 03:55:46;;;;;;;;;;;;;;;;;;5113955;28;19924;-51
2023/12/11 03:58:12;;;;;;;;;;;;;;;;;;5113487;28;19928;-52
2023/12/11 04:00:38;;;;;;;;;;;;;;;;;;5113187;28;19930;-51
2023/12/11 04:03:05;;;;;;;;;;;;;;;;;;5113926;28;20006;-51
2023/12/11 04:05:31;;;;;;;;;;;;;;;;;;5113769;28;19927;-51
2023/12/11 04:07:57;;;;;;;;;;;;;;;;;;5113814;27;19924;-51
2023/12/11 04:10:23;;;;;;;;;;;;;;;;;;5113078;28;19928;-51
2023/12/11 04:12:50;;;;;;;;;;;;;;;;;;5112948;28;19923;-50
2023/12/11 04:15:16;;;;;;;;;;;;;;;;;;5112734;28;19923;-51
2023/12/11 04:17:43;;;;;;;;;;;;;;;;;;5112772;28;19927;-50
2023/12/11 04:20:09;;;;;;;;;;;;;;;;;;5112766;28;19923;-53
2023/12/11 04:22:35;;;;;;;;;;;;;;;;;;5112920;28;19984;-52
2023/12/11 04:25:01;;;;;;;;;;;;;;;;;;5112683;28;19927;-52
2023/12/11 04:27:27;;;;;;;;;;;;;;;;;;5113496;28;19931;-51
2023/12/11 04:29:54;;;;;;;;;;;;;;;;;;5112997;28;19923;-52
2023/12/11 04:32:20;;;;;;;;;;;;;;;;;;5112846;28;19943;-51
2023/12/11 04:34:47;;;;;;;;;;;;;;;;;;5113354;28;19924;-51
2023/12/11 04:37:13;;;;;;;;;;;;;;;;;;5113342;28;20023;-50
2023/12/11 04:39:39;;;;;;;;;;;;;;;;;;5113183;28;19924;-51
2023/12/11 04:42:05;;;;;;;;;;;;;;;;;;5112994;28;19938;-51
2023/12/11 04:44:31;;;;;;;;;;;;;;;;;;5112941;28;19923;-52
2023/12/11 04:46:58;;;;;;;;;;;;;;;;;;5100478;28;19970;-50
2023/12/11 04:49:24;;;;;;;;;;;;;;;;;;5092573;28;19928;-52
2023/12/11 04:51:50;;;;;;;;;;;;;;;;;;5096339;28;19924;-52
2023/12/11 04:54:16;;;;;;;;;;;;;;;;;;5096891;28;19928;-52
2023/12/11 04:56:42;;;;;;;;;;;;;;;;;;5096769;28;19971;-52
2023/12/11 04:59:08;;;;;;;;;;;;;;;;;;5096608;28;19973;-50
2023/12/11 05:01:35;;;;;;;;;;;;;;;;;;5096590;28;19928;-50
2023/12/11 05:04:01;;;;;;;;;;;;;;;;;;5096829;28;20015;-52
2023/12/11 05:06:27;;;;;;;;;;;;;;;;;;5096722;28;19928;-50
2023/12/11 05:08:53;;;;;;;;;;;;;;;;;;5096597;28;19924;-51
2023/12/11 05:11:19;;;;;;;;;;;;;;;;;;5096281;28;19979;-52
2023/12/11 05:13:45;;;;;;;;;;;;;;;;;;5096288;28;20013;-52
2023/12/11 05:16:11;;;;;;;;;;;;;;;;;;5096112;28;19924;-51
2023/12/11 05:18:38;;;;;;;;;;;;;;;;;;5096145;28;20012;-51
2023/12/11 05:21:05;;;;;;;;;;;;;;;;;;5096086;28;20356;-51
2023/12/11 05:23:31;;;;;;;;;;;;;;;;;;5096278;28;20368;-51
2023/12/11 05:25:57;;;;;;;;;;;;;;;;;;5095627;28;19970;-51
2023/12/11 05:28:29;;;;;;;;;;;;;;;;;;5094493;28;19924;-51
2023/12/11 05:30:55;;;;;;;;;;;;;;;;;;5094189;28;20359;-52
2023/12/11 05:33:22;;;;;;;;;;;;;;;;;;5095305;28;19924;-52
2023/12/11 05:35:48;;;;;;;;;;;;;;;;;;5095852;28;19973;-51
2023/12/11 05:38:14;;;;;;;;;;;;;;;;;;5095806;28;19924;-52
2023/12/11 05:40:40;;;;;;;;;;;;;;;;;;5095441;28;19989;-50
2023/12/11 05:43:08;;;;;;;;;;;;;;;;;;5095113;28;21202;-51
2023/12/11 05:45:34;;;;;;;;;;;;;;;;;;5096391;28;20356;-51
2023/12/11 05:48:01;;;;;;;;;;;;;;;;;;5115882;28;19924;-50
2023/12/11 05:50:27;;;;;;;;;;;;;;;;;;5115836;28;19928;-52
2023/12/11 05:52:53;;;;;;;;;;;;;;;;;;5115789;28;19924;-50
2023/12/11 05:55:20;;;;;;;;;;;;;;;;;;5115006;28;19924;-52
2023/12/11 05:57:46;;;;;;;;;;;;;;;;;;5114540;28;19962;-51
2023/12/11 06:00:14;;;;;;;;;;;;;;;;;;5115065;28;19977;-50
2023/12/11 06:02:40;;;;;;;;;;;;;;;;;;5114462;28;19924;-51
2023/12/11 06:05:06;;;;;;;;;;;;;;;;;;5116096;28;19924;-52
2023/12/11 06:07:32;;;;;;;;;;;;;;;;;;5113512;28;19924;-52
2023/12/11 06:09:58;;;;;;;;;;;;;;;;;;5114547;28;19963;-51
2023/12/11 06:12:25;;;;;;;;;;;;;;;;;;5115364;28;19928;-50
2023/12/11 06:14:51;;;;;;;;;;;;;;;;;;5114221;28;20416;-52
2023/12/11 06:17:17;;;;;;;;;;;;;;;;;;5115477;28;19988;-51
2023/12/11 06:19:43;;;;;;;;;;;;;;;;;;5110958;28;19923;-52
2023/12/11 06:22:10;;;;;;;;;;;;;;;;;;5094839;28;19966;-52
2023/12/11 06:24:36;;;;;;;;;;;;;;;;;;5097263;28;19936;-51
2023/12/11 06:27:02;;;;;;;;;;;;;;;;;;5113148;28;19947;-53
2023/12/11 06:29:28;;;;;;;;;;;;;;;;;;5112645;28;19931;-51
2023/12/11 06:31:54;;;;;;;;;;;;;;;;;;5103546;28;19953;-53
2023/12/11 06:34:21;;;;;;;;;;;;;;;;;;5108450;28;20628;-53
2023/12/11 06:36:47;;;;;;;;;;;;;;;;;;5110731;28;19928;-52
2023/12/11 06:39:14;;;;;;;;;;;;;;;;;;5097853;28;19928;-52
2023/12/11 06:41:40;;;;;;;;;;;;;;;;;;5110719;28;19924;-52
2023/12/11 06:44:06;;;;;;;;;;;;;;;;;;5113029;28;19928;-52
2023/12/11 06:46:32;;;;;;;;;;;;;;;;;;5112274;27;19976;-50
2023/12/11 06:48:58;;;;;;;;;;;;;;;;;;5112108;28;19969;-53
2023/12/11 06:51:25;;;;;;;;;;;;;;;;;;5110419;28;20571;-52
2023/12/11 06:53:58;;;;;;;;;;;;;;;;;;5109378;28;20363;-51
2023/12/11 06:56:24;;;;;;;;;;;;;;;;;;5111592;28;19932;-52
2023/12/11 06:58:50;;;;;;;;;;;;;;;;;;5105777;28;20007;-52
2023/12/11 07:01:16;;;;;;;;;;;;;;;;;;5106333;27;19984;-54
2023/12/11 07:03:45;;;;;;;;;;;;;;;;;;5103321;27;19931;-52
2023/12/11 07:06:11;;;;;;;;;;;;;;;;;;5105602;28;20115;-52
2023/12/11 07:08:37;;;;;;;;;;;;;;;;;;5102518;28;20426;-51
2023/12/11 07:11:03;;;;;;;;;;;;;;;;;;5105448;28;19986;-53
2023/12/11 07:13:30;;;;;;;;;;;;;;;;;;5100205;28;19985;-53
2023/12/11 07:15:56;;;;;;;;;;;;;;;;;;5102567;28;19928;-51
2023/12/11 07:18:22;;;;;;;;;;;;;;;;;;5102068;28;19928;-51
2023/12/11 07:20:49;;;;;;;;;;;;;;;;;;5098918;28;19928;-51
2023/12/11 07:23:15;;;;;;;;;;;;;;;;;;5103580;28;19931;-51
2023/12/11 07:25:41;;;;;;;;;;;;;;;;;;5100338;28;20391;-52
2023/12/11 07:28:07;;;;;;;;;;;;;;;;;;5096569;28;19971;-51
2023/12/11 07:30:34;;;;;;;;;;;;;;;;;;5102131;28;19932;-51
2023/12/11 07:33:00;;;;;;;;;;;;;;;;;;5096714;27;19928;-50
2023/12/11 07:35:26;;;;;;;;;;;;;;;;;;5095735;28;19931;-51
2023/12/11 07:37:52;;;;;;;;;;;;;;;;;;5100337;28;20135;-50
2023/12/11 07:40:19;;;;;;;;;;;;;;;;;;5103102;28;19924;-52
2023/12/11 07:42:45;;;;;;;;;;;;;;;;;;5098991;27;20009;-52
2023/12/11 07:45:11;;;;;;;;;;;;;;;;;;5099290;28;19936;-50
2023/12/11 07:47:37;;;;;;;;;;;;;;;;;;5096827;28;19924;-52
2023/12/11 07:50:03;;;;;;;;;;;;;;;;;;5096029;28;19959;-52
2023/12/11 07:52:30;;;;;;;;;;;;;;;;;;5095200;28;19949;-51
2023/12/11 07:54:56;;;;;;;;;;;;;;;;;;5095545;28;19959;-52
2023/12/11 07:57:22;;;;;;;;;;;;;;;;;;5096157;28;20357;-53
2023/12/11 07:59:48;;;;;;;;;;;;;;;;;;5096375;28;20248;-56
2023/12/11 08:02:15;;;;;;;;;;;;;;;;;;5077812;28;19971;-52
2023/12/11 08:04:41;;;;;;;;;;;;;;;;;;5093508;28;20034;-52
2023/12/11 08:07:07;;;;;;;;;;;;;;;;;;5094916;28;19993;-52
2023/12/11 08:09:34;;;;;;;;;;;;;;;;;;5093836;28;20039;-51
2023/12/11 08:12:00;;;;;;;;;;;;;;;;;;5093166;28;19994;-51
2023/12/11 08:14:26;;;;;;;;;;;;;;;;;;5089934;28;19931;-50
2023/12/11 08:16:52;;;;;;;;;;;;;;;;;;5091432;28;19975;-52
2023/12/11 08:19:19;;;;;;;;;;;;;;;;;;5093852;28;19970;-53
2023/12/11 08:21:45;;;;;;;;;;;;;;;;;;5092219;28;20046;-50
2023/12/11 08:24:12;;;;;;;;;;;;;;;;;;5097503;28;19924;-52
2023/12/11 08:26:38;;;;;;;;;;;;;;;;;;5095809;28;19936;-52
2023/12/11 08:29:04;;;;;;;;;;;;;;;;;;5098807;28;20361;-51
2023/12/11 08:31:30;;;;;;;;;;;;;;;;;;5092012;28;19928;-56
2023/12/11 08:33:56;;;;;;;;;;;;;;;;;;5093177;28;19993;-53
2023/12/11 08:36:23;;;;;;;;;;;;;;;;;;5098690;28;20143;-53
2023/12/11 08:38:49;;;;;;;;;;;;;;;;;;5089881;28;19932;-53
2023/12/11 08:41:15;;;;;;;;;;;;;;;;;;5099334;28;19936;-53
2023/12/11 08:43:43;;;;;;;;;;;;;;;;;;5096825;28;19934;-53
2023/12/11 08:46:09;;;;;;;;;;;;;;;;;;5090655;28;19989;-53
2023/12/11 08:48:35;;;;;;;;;;;;;;;;;;5098888;28;20338;-52
2023/12/11 08:51:02;;;;;;;;;;;;;;;;;;5098011;28;20294;-53
2023/12/11 08:53:28;;;;;;;;;;;;;;;;;;5091975;28;19927;-52
2023/12/11 08:55:55;;;;;;;;;;;;;;;;;;5085801;28;19923;-52
2023/12/11 08:58:21;;;;;;;;;;;;;;;;;;5088421;28;19982;-51
2023/12/11 09:00:47;;;;;;;;;;;;;;;;;;5081238;28;19936;-53
2023/12/11 09:03:14;;;;;;;;;;;;;;;;;;5090804;28;19940;-53
2023/12/11 09:05:40;;;;;;;;;;;;;;;;;;5093486;28;19982;-53
2023/12/11 09:08:06;;;;;;;;;;;;;;;;;;5010262;28;20398;-52
2023/12/11 09:10:32;;;;;;;;;;;;;;;;;;4999974;28;19944;-53
2023/12/11 09:12:59;;;;;;;;;;;;;;;;;;5006095;28;19987;-52
2023/12/11 09:15:25;;;;;;;;;;;;;;;;;;5005973;28;19940;-51
2023/12/11 09:17:51;;;;;;;;;;;;;;;;;;5006486;28;20723;-53
2023/12/11 09:20:17;;;;;;;;;;;;;;;;;;5003068;28;19932;-51
2023/12/11 09:22:44;;;;;;;;;;;;;;;;;;5003005;28;19936;-51
2023/12/11 09:25:10;;;;;;;;;;;;;;;;;;5006307;28;19966;-53
2023/12/11 09:27:37;;;;;;;;;;;;;;;;;;5032831;28;20383;-52
2023/12/11 09:30:03;;;;;;;;;;;;;;;;;;5030826;28;20415;-52
2023/12/11 09:32:29;;;;;;;;;;;;;;;;;;5022437;28;19936;-52
2023/12/11 09:34:55;;;;;;;;;;;;;;;;;;5021818;28;19936;-52
2023/12/11 09:37:21;;;;;;;;;;;;;;;;;;5022996;28;19933;-51
2023/12/11 09:39:48;;;;;;;;;;;;;;;;;;5027868;28;19939;-55
2023/12/11 09:42:14;;;;;;;;;;;;;;;;;;5028114;28;19929;-53
2023/12/11 09:44:40;;;;;;;;;;;;;;;;;;5033697;28;19939;-55
2023/12/11 09:47:06;;;;;;;;;;;;;;;;;;5088859;27;19932;-50
2023/12/11 09:49:34;;;;;;;;;;;;;;;;;;5095876;27;20486;-54
2023/12/11 09:52:00;;;;;;;;;;;;;;;;;;5092959;27;19927;-52
2023/12/11 09:54:26;;;;;;;;;;;;;;;;;;5094541;27;20903;-52
2023/12/11 09:56:53;;;;;;;;;;;;;;;;;;5098948;27;19924;-53
2023/12/11 09:59:20;;;;;;;;;;;;;;;;;;5104304;28;19934;-52
2023/12/11 10:01:46;;;;;;;;;;;;;;;;;;5099130;28;20766;-51
2023/12/11 10:04:13;;;;;;;;;;;;;;;;;;5094359;28;19928;-51
2023/12/11 10:06:39;;;;;;;;;;;;;;;;;;5097487;28;20848;-52
2023/12/11 10:09:05;;;;;;;;;;;;;;;;;;5092272;27;19927;-49
2023/12/11 10:11:33;;;;;;;;;;;;;;;;;;5101136;27;20384;-55
2023/12/11 10:13:59;;;;;;;;;;;;;;;;;;5091425;27;19997;-50
2023/12/11 10:16:27;;;;;;;;;;;;;;;;;;5097687;27;20415;-52
2023/12/11 10:18:53;;;;;;;;;;;;;;;;;;5098792;28;19935;-54
2023/12/11 10:21:20;;;;;;;;;;;;;;;;;;5100940;28;19955;-54
2023/12/11 10:23:46;;;;;;;;;;;;;;;;;;5100987;27;19951;-54
2023/12/11 10:26:12;;;;;;;;;;;;;;;;;;5103461;28;19928;-54
2023/12/11 10:28:40;;;;;;;;;;;;;;;;;;5097453;27;19938;-54
2023/12/11 10:31:06;;;;;;;;;;;;;;;;;;5093392;28;20460;-51
2023/12/11 10:33:33;;;;;;;;;;;;;;;;;;5099567;28;19928;-50
2023/12/11 10:35:59;;;;;;;;;;;;;;;;;;5094088;28;19923;-53
2023/12/11 10:38:25;;;;;;;;;;;;;;;;;;5083025;27;19932;-54
2023/12/11 10:40:52;;;;;;;;;;;;;;;;;;5087931;28;19927;-53
2023/12/11 10:43:18;;;;;;;;;;;;;;;;;;5088641;28;19931;-52
2023/12/11 10:45:44;;;;;;;;;;;;;;;;;;5092079;28;20001;-54
2023/12/11 10:48:13;;;;;;;;;;;;;;;;;;5093442;28;20003;-55
2023/12/11 10:50:40;;;;;;;;;;;;;;;;;;5092542;28;19973;-55
2023/12/11 10:53:06;;;;;;;;;;;;;;;;;;5092411;27;20014;-53
2023/12/11 10:55:33;;;;;;;;;;;;;;;;;;5092125;28;19938;-50
2023/12/11 10:57:59;;;;;;;;;;;;;;;;;;5098541;28;19985;-52
2023/12/11 11:00:25;;;;;;;;;;;;;;;;;;5090208;28;19927;-52
2023/12/11 11:02:51;;;;;;;;;;;;;;;;;;5094432;28;19932;-51
2023/12/11 11:05:18;;;;;;;;;;;;;;;;;;5094331;28;19936;-51
2023/12/11 11:07:44;;;;;;;;;;;;;;;;;;5090059;28;19931;-51
2023/12/11 11:10:10;;;;;;;;;;;;;;;;;;5094330;27;19981;-51
2023/12/11 11:12:36;;;;;;;;;;;;;;;;;;5094142;28;19928;-51
2023/12/11 11:15:03;;;;;;;;;;;;;;;;;;5088002;28;19938;-52
2023/12/11 11:17:30;;;;;;;;;;;;;;;;;;5094575;28;20011;-52
2023/12/11 11:19:56;;;;;;;;;;;;;;;;;;5093489;28;19947;-51
2023/12/11 11:22:22;;;;;;;;;;;;;;;;;;5094758;28;20353;-52
2023/12/11 11:24:56;;;;;;;;;;;;;;;;;;5098047;28;19978;-52
2023/12/11 11:27:22;;;;;;;;;;;;;;;;;;5093423;28;19938;-51
2023/12/11 11:29:49;;;;;;;;;;;;;;;;;;5092275;28;19996;-50
2023/12/11 11:32:17;;;;;;;;;;;;;;;;;;5089358;28;19932;-51
2023/12/11 11:34:44;;;;;;;;;;;;;;;;;;5092308;28;19932;-52
2023/12/11 11:37:10;;;;;;;;;;;;;;;;;;5092253;28;20308;-50
2023/12/11 11:39:36;;;;;;;;;;;;;;;;;;5085724;28;19932;-51
2023/12/11 11:42:06;;;;;;;;;;;;;;;;;;5086867;28;20035;-50
2023/12/11 11:44:33;;;;;;;;;;;;;;;;;;5082879;27;19924;-50
2023/12/11 11:47:00;;;;;;;;;;;;;;;;;;5083511;28;20572;-52
2023/12/11 11:49:26;;;;;;;;;;;;;;;;;;5096216;27;20371;-51
2023/12/11 11:51:53;;;;;;;;;;;;;;;;;;5091312;28;19928;-51
2023/12/11 11:54:19;;;;;;;;;;;;;;;;;;5086153;28;20376;-51
2023/12/11 11:56:45;;;;;;;;;;;;;;;;;;5085546;28;20407;-52
2023/12/11 11:59:11;;;;;;;;;;;;;;;;;;5090229;28;19943;-52
2023/12/11 12:01:37;;;;;;;;;;;;;;;;;;5084279;28;19932;-52
2023/12/11 12:04:04;;;;;;;;;;;;;;;;;;5091220;28;19932;-52
2023/12/11 12:06:30;;;;;;;;;;;;;;;;;;5082558;28;19946;-49
2023/12/11 12:08:56;;;;;;;;;;;;;;;;;;5084489;27;19979;-51
2023/12/11 12:11:23;;;;;;;;;;;;;;;;;;5086663;28;19932;-51
2023/12/11 12:13:49;;;;;;;;;;;;;;;;;;5085789;28;19990;-51
2023/12/11 12:16:15;;;;;;;;;;;;;;;;;;5085453;28;19932;-52
2023/12/11 12:18:41;;;;;;;;;;;;;;;;;;5089264;28;19928;-52
2023/12/11 12:21:09;;;;;;;;;;;;;;;;;;5089622;28;19932;-52
2023/12/11 12:23:35;;;;;;;;;;;;;;;;;;5044064;28;19932;-52
2023/12/11 12:26:02;;;;;;;;;;;;;;;;;;5044453;28;19937;-52
2023/12/11 12:28:28;;;;;;;;;;;;;;;;;;5040514;28;19928;-53
2023/12/11 12:30:55;;;;;;;;;;;;;;;;;;5044341;28;19998;-51
2023/12/11 12:33:21;;;;;;;;;;;;;;;;;;5042764;28;19935;-47
2023/12/11 12:35:48;;;;;;;;;;;;;;;;;;5042074;28;19994;-51
2023/12/11 12:38:14;;;;;;;;;;;;;;;;;;5042709;28;19985;-53
2023/12/11 12:40:41;;;;;;;;;;;;;;;;;;5050043;28;19932;-51
2023/12/11 12:43:07;;;;;;;;;;;;;;;;;;5093357;28;21553;-48
2023/12/11 12:45:34;;;;;;;;;;;;;;;;;;5089576;28;19934;-51
2023/12/11 12:48:02;;;;;;;;;;;;;;;;;;5096421;28;19973;-52
2023/12/11 12:50:28;;;;;;;;;;;;;;;;;;5092728;28;20430;-53
2023/12/11 12:52:54;;;;;;;;;;;;;;;;;;5092509;28;21277;-50
2023/12/11 12:55:21;;;;;;;;;;;;;;;;;;5090174;28;19924;-51
2023/12/11 12:57:48;;;;;;;;;;;;;;;;;;5089949;28;19930;-50
2023/12/11 13:00:14;;;;;;;;;;;;;;;;;;5094808;28;20657;-51
2023/12/11 13:02:40;;;;;;;;;;;;;;;;;;5096225;28;19963;-49
2023/12/11 13:05:07;;;;;;;;;;;;;;;;;;5089111;28;19924;-50
2023/12/11 13:07:33;;;;;;;;;;;;;;;;;;5091643;28;19967;-51
2023/12/11 13:10:00;;;;;;;;;;;;;;;;;;5094421;28;19923;-51
2023/12/11 13:12:26;;;;;;;;;;;;;;;;;;5097069;28;20014;-51
2023/12/11 13:14:55;;;;;;;;;;;;;;;;;;5099948;27;20402;-51
2023/12/11 13:17:21;;;;;;;;;;;;;;;;;;5097243;28;19923;-50
2023/12/11 13:19:48;;;;;;;;;;;;;;;;;;5096988;28;19985;-51
2023/12/11 13:22:15;;;;;;;;;;;;;;;;;;5089692;28;19993;-52
2023/12/11 13:24:42;;;;;;;;;;;;;;;;;;5092192;28;19939;-50
2023/12/11 13:27:08;;;;;;;;;;;;;;;;;;5089486;27;19932;-51
2023/12/11 13:29:34;;;;;;;;;;;;;;;;;;5088793;28;19928;-51
2023/12/11 13:32:00;;;;;;;;;;;;;;;;;;5098122;28;19928;-51
2023/12/11 13:34:27;;;;;;;;;;;;;;;;;;5097323;27;20468;-52
2023/12/11 13:36:53;;;;;;;;;;;;;;;;;;5100847;28;20353;-53
2023/12/11 13:39:20;;;;;;;;;;;;;;;;;;5100191;27;19932;-52
2023/12/11 13:41:46;;;;;;;;;;;;;;;;;;5105573;28;19981;-56
2023/12/11 13:44:12;;;;;;;;;;;;;;;;;;5100015;28;20303;-52
2023/12/11 13:46:38;;;;;;;;;;;;;;;;;;5101748;28;19967;-51
2023/12/11 13:49:05;;;;;;;;;;;;;;;;;;5101980;28;19990;-58
2023/12/11 13:51:31;;;;;;;;;;;;;;;;;;5101106;28;20603;-58
2023/12/11 13:53:57;;;;;;;;;;;;;;;;;;5094350;27;19973;-59
2023/12/11 13:56:23;;;;;;;;;;;;;;;;;;5099472;27;20244;-54
2023/12/11 13:58:50;;;;;;;;;;;;;;;;;;5108092;28;19935;-55
2023/12/11 14:01:16;;;;;;;;;;;;;;;;;;5108224;28;19981;-51
2023/12/11 14:03:42;;;;;;;;;;;;;;;;;;5107985;28;19943;-52
2023/12/11 14:06:08;;;;;;;;;;;;;;;;;;5105861;28;19923;-53
2023/12/11 14:08:34;;;;;;;;;;;;;;;;;;5107130;28;19923;-51
2023/12/11 14:11:01;;;;;;;;;;;;;;;;;;5103310;27;19969;-51
2023/12/11 14:13:27;;;;;;;;;;;;;;;;;;5108196;27;19981;-51
2023/12/11 14:15:53;;;;;;;;;;;;;;;;;;5108006;28;19932;-51
2023/12/11 14:18:21;;;;;;;;;;;;;;;;;;5106291;28;20388;-52
2023/12/11 14:20:47;;;;;;;;;;;;;;;;;;5108146;28;20699;-50
2023/12/11 14:23:13;;;;;;;;;;;;;;;;;;5107782;28;19923;-50
2023/12/11 14:25:39;;;;;;;;;;;;;;;;;;5108338;27;19959;-52
2023/12/11 14:28:06;;;;;;;;;;;;;;;;;;5108563;27;19950;-51
2023/12/11 14:30:32;;;;;;;;;;;;;;;;;;5108970;28;19958;-51
2023/12/11 14:32:58;;;;;;;;;;;;;;;;;;5108965;28;19931;-51
2023/12/11 14:35:25;;;;;;;;;;;;;;;;;;5105853;27;19980;-52
2023/12/11 14:37:51;;;;;;;;;;;;;;;;;;5104898;28;19924;-50
2023/12/11 14:40:17;;;;;;;;;;;;;;;;;;5100828;28;19923;-51
2023/12/11 14:42:44;;;;;;;;;;;;;;;;;;5096314;28;19924;-48
2023/12/11 14:45:10;;;;;;;;;;;;;;;;;;5097035;28;19924;-51
2023/12/11 14:47:36;;;;;;;;;;;;;;;;;;5099196;27;20006;-52
2023/12/11 14:50:03;;;;;;;;;;;;;;;;;;5095324;28;20261;-52
2023/12/11 14:52:29;;;;;;;;;;;;;;;;;;5099746;28;20759;-52
2023/12/11 14:54:55;;;;;;;;;;;;;;;;;;5102399;28;19940;-51
2023/12/11 14:57:21;;;;;;;;;;;;;;;;;;5103452;28;20329;-52
2023/12/11 14:59:47;;;;;;;;;;;;;;;;;;5100486;28;20599;-53
2023/12/11 15:02:14;;;;;;;;;;;;;;;;;;5103190;27;19955;-51
2023/12/11 15:04:40;;;;;;;;;;;;;;;;;;5103908;28;19924;-51
2023/12/11 15:07:06;;;;;;;;;;;;;;;;;;5106585;28;19927;-52
2023/12/11 15:09:34;;;;;;;;;;;;;;;;;;5107726;28;19927;-52
2023/12/11 15:12:00;;;;;;;;;;;;;;;;;;5024287;28;20367;-51
2023/12/11 15:14:29;;;;;;;;;;;;;;;;;;5019720;28;19975;-51
2023/12/11 15:16:55;;;;;;;;;;;;;;;;;;5023486;28;19929;-52
2023/12/11 15:19:22;;;;;;;;;;;;;;;;;;5021431;28;20357;-52
2023/12/11 15:21:48;;;;;;;;;;;;;;;;;;5024405;28;20356;-52
2023/12/11 15:24:14;;;;;;;;;;;;;;;;;;5020014;28;19987;-51
2023/12/11 15:26:40;;;;;;;;;;;;;;;;;;5018119;28;19987;-52
2023/12/11 15:29:07;;;;;;;;;;;;;;;;;;5027132;28;19964;-52
2023/12/11 15:31:33;;;;;;;;;;;;;;;;;;5106506;28;19938;-52
2023/12/11 15:33:59;;;;;;;;;;;;;;;;;;5107238;28;19924;-52
2023/12/11 15:36:25;;;;;;;;;;;;;;;;;;5104859;28;19932;-52
2023/12/11 15:38:52;;;;;;;;;;;;;;;;;;5105806;28;19976;-51
2023/12/11 15:41:18;;;;;;;;;;;;;;;;;;5106175;28;20336;-50
2023/12/11 15:43:47;;;;;;;;;;;;;;;;;;5102862;28;20513;-52
2023/12/11 15:46:13;;;;;;;;;;;;;;;;;;5105473;28;19935;-50
2023/12/11 15:48:43;;;;;;;;;;;;;;;;;;5107726;28;19928;-52
2023/12/11 15:51:12;;;;;;;;;;;;;;;;;;5107610;28;19924;-52
2023/12/11 15:53:38;;;;;;;;;;;;;;;;;;5106526;28;20364;-51
2023/12/11 15:56:04;;;;;;;;;;;;;;;;;;5106595;28;19976;-52
2023/12/11 15:58:31;;;;;;;;;;;;;;;;;;5107141;28;19923;-51
2023/12/11 16:00:57;;;;;;;;;;;;;;;;;;5107441;28;19931;-53
2023/12/11 16:03:23;;;;;;;;;;;;;;;;;;5107173;28;20418;-52
2023/12/11 16:05:49;;;;;;;;;;;;;;;;;;5106804;28;19924;-52
2023/12/11 16:08:16;;;;;;;;;;;;;;;;;;5107635;28;20312;-52
2023/12/11 16:10:42;;;;;;;;;;;;;;;;;;5107574;28;19935;-51
2023/12/11 16:13:08;;;;;;;;;;;;;;;;;;5107485;28;20031;-52
2023/12/11 16:15:34;;;;;;;;;;;;;;;;;;5106446;28;19931;-52
2023/12/11 16:18:00;;;;;;;;;;;;;;;;;;5107329;28;20375;-52
2023/12/11 16:20:27;;;;;;;;;;;;;;;;;;5107332;28;19924;-52
2023/12/11 16:22:53;;;;;;;;;;;;;;;;;;5107301;28;19963;-52
2023/12/11 16:25:19;;;;;;;;;;;;;;;;;;5105681;28;20341;-52
2023/12/11 16:27:46;;;;;;;;;;;;;;;;;;5107203;28;19939;-52
2023/12/11 16:30:12;;;;;;;;;;;;;;;;;;5107684;28;19931;-53
2023/12/11 16:32:38;;;;;;;;;;;;;;;;;;5107548;28;19923;-51
2023/12/11 16:35:05;;;;;;;;;;;;;;;;;;5106689;28;19931;-52
2023/12/11 16:37:31;;;;;;;;;;;;;;;;;;5107183;28;19928;-52
2023/12/11 16:39:57;;;;;;;;;;;;;;;;;;5107302;28;19932;-51